Time;durP1;ratioP1;P1;durP2;ratioP2;P2;SDS_P1;SDS_P2;PMS_P1;PMS_P2;Temp;Humidity;BMP_temperature;BMP_pressure;BME280_temperature;BME280_humidity;BME280_pressure;Samples;Min_cycle;Max_cycle;Signal;HPM_P1;HPM_P2
2023/04/21 00:00:00;;;;;;;12.20;10.63;;;8.60;99.90;;;;;;5032493;28;20494;-86
2023/04/21 00:02:27;;;;;;;11.63;10.60;;;8.00;99.90;;;;;;5029374;28;20522;-87
2023/04/21 00:04:55;;;;;;;11.90;10.80;;;7.80;99.90;;;;;;5039960;28;20454;-86
2023/04/21 00:07:22;;;;;;;12.90;11.57;;;8.00;99.90;;;;;;5043816;28;20446;-87
2023/04/21 00:09:48;;;;;;;11.57;10.47;;;8.20;99.90;;;;;;5032127;28;20554;-87
2023/04/21 00:12:15;;;;;;;12.27;11.00;;;8.30;99.90;;;;;;5028828;28;20858;-86
2023/04/21 00:14:44;;;;;;;12.33;11.13;;;8.30;99.90;;;;;;5034529;28;20862;-85
2023/04/21 00:17:11;;;;;;;14.03;11.70;;;8.10;99.90;;;;;;5033207;28;20435;-87
2023/04/21 00:19:38;;;;;;;12.17;10.63;;;7.60;99.90;;;;;;5036193;28;20474;-86
2023/04/21 00:22:09;;;;;;;12.23;11.03;;;7.70;99.90;;;;;;5034850;28;20470;-86
2023/04/21 00:24:36;;;;;;;13.10;11.90;;;7.80;99.90;;;;;;5037269;28;20506;-85
2023/04/21 00:27:03;;;;;;;13.10;11.70;;;7.90;99.90;;;;;;5036646;28;20913;-86
2023/04/21 00:29:30;;;;;;;12.00;10.80;;;8.10;99.90;;;;;;5037362;28;20466;-87
2023/04/21 00:32:00;;;;;;;11.30;10.10;;;8.20;99.90;;;;;;5036799;28;20481;-87
2023/04/21 00:34:27;;;;;;;11.47;10.37;;;8.40;99.90;;;;;;5036867;28;20482;-85
2023/04/21 00:36:54;;;;;;;12.03;10.80;;;8.50;99.90;;;;;;5036319;28;20430;-87
2023/04/21 00:39:21;;;;;;;12.30;11.20;;;8.50;99.90;;;;;;5037239;28;20569;-87
2023/04/21 00:41:48;;;;;;;13.03;11.73;;;8.50;99.90;;;;;;5020912;28;20476;-86
2023/04/21 00:44:15;;;;;;;11.93;10.83;;;8.50;99.90;;;;;;5033118;28;20479;-87
2023/04/21 00:46:42;;;;;;;11.27;10.10;;;8.50;99.90;;;;;;5036061;28;20512;-86
2023/04/21 00:49:12;;;;;;;12.27;10.97;;;8.40;99.90;;;;;;5036072;28;20468;-87
2023/04/21 00:51:39;;;;;;;11.70;10.53;;;8.40;99.90;;;;;;5035348;28;20450;-87
2023/04/21 00:54:07;;;;;;;11.00;9.90;;;8.40;99.90;;;;;;5035837;28;20500;-86
2023/04/21 00:56:35;;;;;;;11.40;10.27;;;8.40;99.90;;;;;;5051982;23;21001;-53
2023/04/21 00:59:02;;;;;;;12.97;11.70;;;8.50;99.90;;;;;;5033335;28;20478;-54
2023/04/21 01:01:30;;;;;;;12.07;10.80;;;8.50;99.90;;;;;;5033916;28;20451;-53
2023/04/21 01:03:58;;;;;;;12.90;11.60;;;8.60;99.90;;;;;;5033443;28;20470;-54
2023/04/21 01:06:27;;;;;;;11.57;10.47;;;8.60;99.90;;;;;;5033422;28;20946;-54
2023/04/21 01:08:55;;;;;;;11.90;10.70;;;8.70;99.90;;;;;;5034267;28;20544;-54
2023/04/21 01:11:22;;;;;;;11.20;10.13;;;8.70;99.90;;;;;;5032954;28;20481;-54
2023/04/21 01:13:53;;;;;;;11.67;10.50;;;8.70;99.90;;;;;;5015515;28;20552;-54
2023/04/21 01:16:20;;;;;;;12.13;10.90;;;8.80;99.90;;;;;;5015388;28;20440;-53
2023/04/21 01:18:47;;;;;;;12.73;11.43;;;8.80;99.90;;;;;;5013774;28;20480;-55
2023/04/21 01:21:15;;;;;;;11.37;10.20;;;8.80;99.90;;;;;;5023474;28;20986;-53
2023/04/21 01:23:43;;;;;;;12.83;11.47;;;8.70;99.90;;;;;;5019104;28;21026;-53
2023/04/21 01:26:10;;;;;;;19.20;11.77;;;8.70;99.90;;;;;;5013916;28;20539;-53
2023/04/21 01:28:38;;;;;;;11.27;10.07;;;8.80;99.90;;;;;;5014425;28;20480;-55
2023/04/21 01:31:05;;;;;;;12.77;11.60;;;8.70;99.90;;;;;;5013576;28;20530;-53
2023/04/21 01:33:32;;;;;;;13.67;12.27;;;8.70;99.90;;;;;;5014428;28;21048;-53
2023/04/21 01:36:00;;;;;;;12.27;11.10;;;8.70;99.90;;;;;;5013653;28;20543;-53
2023/04/21 01:38:27;;;;;;;12.10;10.87;;;8.40;99.90;;;;;;5013489;28;20453;-53
2023/04/21 01:40:55;;;;;;;12.70;11.43;;;8.20;99.90;;;;;;5013824;28;21080;-55
2023/04/21 01:43:24;;;;;;;12.83;11.50;;;7.90;99.90;;;;;;5013377;28;20546;-54
2023/04/21 01:45:52;;;;;;;12.57;11.33;;;8.00;99.90;;;;;;5013445;28;20479;-53
2023/04/21 01:48:19;;;;;;;11.77;10.57;;;8.20;99.90;;;;;;5013017;28;20464;-53
2023/04/21 01:50:46;;;;;;;12.50;11.40;;;8.40;99.90;;;;;;5013366;28;20471;-53
2023/04/21 01:53:13;;;;;;;13.30;11.83;;;8.10;99.90;;;;;;5013139;28;20566;-53
2023/04/21 01:55:40;;;;;;;13.67;12.23;;;7.80;99.90;;;;;;5018128;28;20488;-53
2023/04/21 01:58:08;;;;;;;15.33;12.17;;;7.90;99.90;;;;;;5017563;28;20882;-53
2023/04/21 02:00:35;;;;;;;14.23;12.80;;;7.90;99.90;;;;;;5032296;28;20478;-54
2023/04/21 02:03:02;;;;;;;12.80;11.53;;;8.00;99.90;;;;;;5020922;28;20569;-53
2023/04/21 02:05:29;;;;;;;13.33;12.03;;;8.20;99.90;;;;;;5017640;28;20534;-53
2023/04/21 02:07:56;;;;;;;13.73;12.33;;;8.00;99.90;;;;;;5031960;28;20529;-53
2023/04/21 02:10:23;;;;;;;12.60;11.30;;;8.10;99.90;;;;;;5030995;28;20803;-53
2023/04/21 02:12:49;;;;;;;12.73;11.17;;;8.30;99.90;;;;;;5031795;28;20498;-55
2023/04/21 02:15:18;;;;;;;12.73;11.40;;;8.30;99.90;;;;;;5032520;28;20956;-53
2023/04/21 02:17:45;;;;;;;12.33;11.10;;;8.40;99.90;;;;;;5032500;28;20482;-54
2023/04/21 02:20:12;;;;;;;12.60;11.40;;;8.10;99.90;;;;;;5029544;28;20483;-55
2023/04/21 02:22:39;;;;;;;12.83;11.13;;;7.70;99.90;;;;;;5012390;28;21041;-53
2023/04/21 02:25:07;;;;;;;12.73;10.53;;;7.90;99.90;;;;;;5012537;28;20938;-53
2023/04/21 02:27:33;;;;;;;12.90;11.60;;;8.10;99.90;;;;;;5012520;28;21033;-54
2023/04/21 02:30:00;;;;;;;12.77;11.37;;;8.20;99.90;;;;;;5012467;28;20448;-54
2023/04/21 02:32:29;;;;;;;12.87;10.73;;;8.30;99.90;;;;;;5012573;28;20487;-53
2023/04/21 02:34:56;;;;;;;12.37;11.07;;;8.00;99.90;;;;;;5016434;28;20443;-53
2023/04/21 02:37:24;;;;;;;14.13;12.27;;;8.00;99.90;;;;;;5031988;28;20965;-53
2023/04/21 02:39:51;;;;;;;12.43;11.27;;;8.20;99.90;;;;;;5031778;28;20498;-55
2023/04/21 02:42:18;;;;;;;12.13;10.80;;;8.30;99.90;;;;;;5031716;28;20553;-52
2023/04/21 02:44:44;;;;;;;13.90;12.50;;;8.10;99.90;;;;;;5031741;28;20443;-53
2023/04/21 02:47:11;;;;;;;12.43;11.23;;;8.10;99.90;;;;;;5031735;28;20482;-54
2023/04/21 02:49:42;;;;;;;13.17;11.87;;;8.20;99.90;;;;;;5030311;28;20996;-53
2023/04/21 02:52:09;;;;;;;13.37;11.97;;;8.10;99.90;;;;;;5011887;28;20546;-51
2023/04/21 02:54:36;;;;;;;13.33;12.03;;;7.60;99.90;;;;;;5021694;28;20450;-53
2023/04/21 02:57:03;;;;;;;13.63;12.37;;;7.60;99.90;;;;;;5031301;28;20891;-52
2023/04/21 02:59:30;;;;;;;14.60;11.90;;;7.70;99.90;;;;;;5031636;28;20513;-54
2023/04/21 03:01:56;;;;;;;14.40;12.50;;;8.00;99.90;;;;;;5013686;28;20447;-54
2023/04/21 03:04:24;;;;;;;12.30;11.00;;;8.10;99.90;;;;;;5011652;28;20486;-53
2023/04/21 03:06:52;;;;;;;12.70;11.50;;;7.70;99.90;;;;;;5011601;28;20448;-54
2023/04/21 03:09:19;;;;;;;13.53;11.90;;;7.70;99.90;;;;;;5012769;28;20542;-54
2023/04/21 03:11:46;;;;;;;14.27;12.20;;;7.70;99.90;;;;;;5011668;28;20482;-54
2023/04/21 03:14:13;;;;;;;13.10;11.70;;;7.60;99.90;;;;;;5011886;28;20526;-54
2023/04/21 03:16:40;;;;;;;14.60;12.57;;;7.60;99.90;;;;;;5017858;28;20947;-53
2023/04/21 03:19:07;;;;;;;14.27;12.87;;;7.50;99.90;;;;;;5023506;28;20480;-54
2023/04/21 03:21:37;;;;;;;14.00;12.40;;;7.50;99.90;;;;;;5011794;28;20523;-54
2023/04/21 03:24:07;;;;;;;14.00;12.50;;;7.70;99.90;;;;;;5011367;28;20443;-54
2023/04/21 03:26:34;;;;;;;14.33;12.37;;;7.80;99.90;;;;;;5011457;28;20451;-54
2023/04/21 03:29:01;;;;;;;13.50;12.10;;;7.60;99.90;;;;;;5011628;28;20454;-53
2023/04/21 03:31:28;;;;;;;14.17;11.50;;;7.50;99.90;;;;;;5011682;28;20865;-55
2023/04/21 03:33:54;;;;;;;14.80;13.23;;;7.50;99.90;;;;;;5018245;28;20524;-54
2023/04/21 03:36:21;;;;;;;16.73;13.23;;;7.60;99.90;;;;;;5031066;28;20905;-54
2023/04/21 03:38:48;;;;;;;13.20;11.73;;;7.80;99.90;;;;;;5030194;28;20469;-53
2023/04/21 03:41:16;;;;;;;13.17;11.77;;;7.90;99.90;;;;;;5012744;28;20581;-53
2023/04/21 03:43:43;;;;;;;18.23;14.70;;;8.00;99.90;;;;;;5015810;28;20516;-54
2023/04/21 03:46:18;;;;;;;14.60;12.47;;;8.10;99.90;;;;;;5011241;28;20930;-53
2023/04/21 03:48:45;;;;;;;15.20;12.20;;;8.20;99.90;;;;;;5011540;28;20447;-53
2023/04/21 03:51:12;;;;;;;14.40;12.43;;;8.20;99.90;;;;;;5021974;28;20722;-53
2023/04/21 03:53:39;;;;;;;12.17;10.80;;;8.20;99.90;;;;;;5030903;28;20553;-54
2023/04/21 03:56:06;;;;;;;12.67;11.50;;;7.90;99.90;;;;;;5029961;28;20541;-53
2023/04/21 03:58:35;;;;;;;13.73;12.40;;;7.70;99.90;;;;;;5022961;28;20547;-53
2023/04/21 04:01:04;;;;;;;15.57;12.30;;;7.80;99.90;;;;;;5018218;28;20502;-54
2023/04/21 04:03:31;;;;;;;11.80;10.50;;;8.00;99.90;;;;;;5030417;28;20547;-55
2023/04/21 04:05:58;;;;;;;13.33;11.93;;;8.10;99.90;;;;;;5031295;28;20478;-54
2023/04/21 04:08:25;;;;;;;12.90;11.70;;;8.10;99.90;;;;;;5030776;28;20485;-54
2023/04/21 04:10:51;;;;;;;13.10;11.80;;;8.20;99.90;;;;;;5030622;28;20470;-54
2023/04/21 04:13:20;;;;;;;11.30;10.10;;;8.20;99.90;;;;;;5030252;28;20545;-54
2023/04/21 04:15:48;;;;;;;11.93;10.83;;;8.30;99.90;;;;;;5029176;28;20478;-54
2023/04/21 04:18:15;;;;;;;13.07;11.60;;;8.30;99.90;;;;;;5030308;28;20862;-54
2023/04/21 04:20:42;;;;;;;12.00;10.73;;;7.90;99.90;;;;;;5018943;28;20521;-54
2023/04/21 04:23:09;;;;;;;13.67;11.83;;;7.60;99.90;;;;;;5025432;28;20502;-53
2023/04/21 04:25:38;;;;;;;12.93;11.13;;;7.60;99.90;;;;;;5026150;28;20494;-53
2023/04/21 04:28:06;;;;;;;12.90;11.50;;;7.70;99.90;;;;;;5030521;28;20861;-53
2023/04/21 04:30:33;;;;;;;13.40;12.00;;;7.80;99.90;;;;;;5029758;28;20438;-54
2023/04/21 04:33:01;;;;;;;14.07;12.50;;;7.80;99.90;;;;;;5030500;28;20498;-54
2023/04/21 04:35:28;;;;;;;12.87;11.57;;;7.60;99.90;;;;;;5026963;28;20517;-53
2023/04/21 04:37:55;;;;;;;11.73;10.63;;;7.80;99.90;;;;;;5009167;28;20523;-54
2023/04/21 04:40:22;;;;;;;12.50;11.40;;;8.00;99.90;;;;;;5009492;28;20566;-53
2023/04/21 04:42:50;;;;;;;12.53;11.40;;;8.00;99.90;;;;;;5010904;28;20502;-54
2023/04/21 04:45:20;;;;;;;13.37;11.97;;;8.10;99.90;;;;;;5012435;28;20443;-55
2023/04/21 04:47:48;;;;;;;12.53;11.33;;;8.10;99.90;;;;;;5013404;28;20443;-55
2023/04/21 04:50:16;;;;;;;11.50;10.30;;;8.20;99.90;;;;;;5012338;28;21002;-54
2023/04/21 04:52:45;;;;;;;11.07;9.97;;;8.20;99.90;;;;;;5030115;28;20538;-53
2023/04/21 04:55:12;;;;;;;13.40;11.93;;;8.30;99.90;;;;;;5030530;28;20450;-54
2023/04/21 04:57:39;;;;;;;13.57;11.63;;;8.30;99.90;;;;;;5014471;28;20447;-53
2023/04/21 05:00:10;;;;;;;15.47;13.87;;;8.30;99.90;;;;;;5015262;28;20525;-54
2023/04/21 05:02:37;;;;;;;17.43;15.57;;;8.30;99.90;;;;;;5013025;28;20562;-54
2023/04/21 05:05:05;;;;;;;13.50;12.20;;;8.10;99.90;;;;;;5027302;28;21659;-54
2023/04/21 05:07:33;;;;;;;14.07;12.57;;;7.90;99.90;;;;;;5018433;28;20455;-54
2023/04/21 05:10:01;;;;;;;15.50;13.03;;;7.90;99.90;;;;;;5021934;28;20464;-56
2023/04/21 05:12:28;;;;;;;14.27;12.87;;;8.00;99.90;;;;;;5023367;28;20520;-54
2023/04/21 05:14:55;;;;;;;15.97;13.40;;;8.10;99.90;;;;;;5028800;28;20611;-54
2023/04/21 05:17:22;;;;;;;16.07;13.90;;;8.10;99.90;;;;;;5033321;28;20454;-53
2023/04/21 05:19:49;;;;;;;15.07;12.37;;;8.10;99.90;;;;;;5033504;28;21016;-53
2023/04/21 05:22:15;;;;;;;14.43;13.10;;;8.00;99.90;;;;;;5033455;28;20894;-53
2023/04/21 05:24:44;;;;;;;14.40;12.90;;;8.00;99.90;;;;;;5032229;28;20481;-51
2023/04/21 05:27:11;;;;;;;15.70;13.70;;;8.00;99.90;;;;;;5032791;28;20454;-55
2023/04/21 05:29:38;;;;;;;14.87;12.90;;;8.10;99.90;;;;;;5033750;28;20474;-53
2023/04/21 05:32:05;;;;;;;13.30;12.00;;;8.10;99.90;;;;;;5033459;28;20495;-54
2023/04/21 05:34:32;;;;;;;13.90;12.47;;;8.20;99.90;;;;;;5032960;28;20486;-54
2023/04/21 05:36:59;;;;;;;15.93;14.30;;;8.20;99.90;;;;;;5032989;28;20504;-52
2023/04/21 05:39:27;;;;;;;17.30;14.10;;;8.10;99.90;;;;;;5033083;28;20538;-54
2023/04/21 05:41:56;;;;;;;15.07;13.53;;;8.10;99.90;;;;;;5033282;28;20510;-54
2023/04/21 05:44:24;;;;;;;16.20;14.47;;;8.20;99.90;;;;;;5033377;28;20791;-52
2023/04/21 05:46:51;;;;;;;16.63;13.03;;;8.20;99.90;;;;;;5033081;28;20454;-54
2023/04/21 05:49:18;;;;;;;14.57;13.17;;;8.10;99.90;;;;;;5033230;28;20516;-54
2023/04/21 05:51:45;;;;;;;16.53;13.40;;;8.10;99.90;;;;;;5033119;28;20827;-54
2023/04/21 05:54:12;;;;;;;14.17;12.80;;;8.10;99.90;;;;;;5033057;28;20473;-52
2023/04/21 05:56:39;;;;;;;15.67;14.03;;;8.20;99.90;;;;;;5032609;28;21031;-53
2023/04/21 05:59:07;;;;;;;15.50;13.70;;;8.20;99.90;;;;;;5032901;28;20477;-54
2023/04/21 06:01:34;;;;;;;16.10;14.30;;;8.40;99.90;;;;;;5032925;28;20521;-53
2023/04/21 06:04:01;;;;;;;15.60;14.00;;;8.40;99.90;;;;;;5032617;28;20458;-54
2023/04/21 06:06:28;;;;;;;16.57;14.53;;;8.40;99.90;;;;;;5032412;28;20534;-53
2023/04/21 06:08:55;;;;;;;17.50;14.63;;;8.30;99.90;;;;;;5032647;28;20470;-54
2023/04/21 06:11:22;;;;;;;15.90;14.30;;;8.30;99.90;;;;;;5032808;28;20450;-54
2023/04/21 06:13:49;;;;;;;17.10;14.23;;;8.30;99.90;;;;;;5032412;28;21082;-54
2023/04/21 06:16:18;;;;;;;15.20;13.63;;;8.20;99.90;;;;;;5032660;28;20488;-52
2023/04/21 06:18:45;;;;;;;19.33;15.10;;;8.20;99.90;;;;;;5031243;28;20470;-53
2023/04/21 06:21:11;;;;;;;15.43;13.80;;;8.30;99.90;;;;;;5032458;28;20505;-55
2023/04/21 06:23:38;;;;;;;14.90;13.40;;;8.40;99.90;;;;;;5031005;28;20490;-54
2023/04/21 06:26:06;;;;;;;12.83;11.00;;;8.40;99.90;;;;;;5031971;28;20529;-54
2023/04/21 06:28:35;;;;;;;12.77;11.57;;;8.20;99.90;;;;;;5032153;28;21009;-53
2023/04/21 06:31:03;;;;;;;12.30;11.10;;;8.20;99.90;;;;;;5032610;28;20481;-54
2023/04/21 06:33:31;;;;;;;9.73;8.83;;;8.20;99.90;;;;;;5032015;28;20513;-54
2023/04/21 06:35:58;;;;;;;12.10;10.90;;;8.40;99.90;;;;;;5032414;28;21194;-54
2023/04/21 06:38:25;;;;;;;11.10;9.13;;;8.60;99.90;;;;;;5032114;28;20529;-54
2023/04/21 06:40:52;;;;;;;13.47;11.50;;;8.60;99.90;;;;;;5031597;28;20513;-54
2023/04/21 06:43:18;;;;;;;15.10;13.50;;;8.70;99.90;;;;;;5031690;28;20993;-54
2023/04/21 06:45:45;;;;;;;16.40;14.00;;;8.80;99.90;;;;;;5031776;28;20541;-54
2023/04/21 06:48:12;;;;;;;14.03;12.73;;;8.80;99.90;;;;;;5030983;28;20477;-53
2023/04/21 06:50:43;;;;;;;14.23;12.93;;;8.80;99.90;;;;;;5030706;28;20467;-54
2023/04/21 06:53:10;;;;;;;17.67;13.80;;;8.80;99.90;;;;;;5031100;28;20998;-51
2023/04/21 06:55:37;;;;;;;13.90;12.50;;;8.90;99.90;;;;;;5038862;28;20478;-54
2023/04/21 06:58:04;;;;;;;12.67;11.40;;;8.90;99.90;;;;;;5042226;28;20481;-54
2023/04/21 07:00:31;;;;;;;13.70;12.23;;;8.90;99.90;;;;;;5041347;28;20439;-54
2023/04/21 07:02:57;;;;;;;13.30;11.53;;;8.90;99.90;;;;;;5040430;28;20485;-53
2023/04/21 07:05:25;;;;;;;12.73;11.47;;;8.90;99.90;;;;;;5042316;28;20516;-53
2023/04/21 07:07:55;;;;;;;11.33;10.27;;;8.90;99.90;;;;;;5040783;28;20463;-55
2023/04/21 07:10:22;;;;;;;14.57;12.73;;;9.00;99.90;;;;;;5040813;28;20945;-54
2023/04/21 07:12:49;;;;;;;12.00;10.67;;;8.90;99.90;;;;;;5041291;28;20536;-53
2023/04/21 07:15:16;;;;;;;13.50;10.47;;;8.90;99.90;;;;;;5041245;28;20478;-53
2023/04/21 07:17:43;;;;;;;11.10;10.00;;;9.00;99.90;;;;;;5038979;28;20477;-53
2023/04/21 07:20:10;;;;;;;10.03;9.13;;;9.00;99.90;;;;;;5040685;28;20525;-54
2023/04/21 07:22:37;;;;;;;11.20;10.10;;;9.10;99.90;;;;;;5039442;28;20509;-53
2023/04/21 07:25:06;;;;;;;12.37;11.17;;;9.00;99.90;;;;;;5041427;28;21008;-54
2023/04/21 07:27:35;;;;;;;10.97;9.73;;;8.90;99.90;;;;;;5040661;28;20525;-53
2023/04/21 07:30:02;;;;;;;11.00;9.90;;;8.90;99.90;;;;;;5039582;28;20434;-53
2023/04/21 07:32:29;;;;;;;10.67;9.57;;;8.90;99.90;;;;;;5041134;28;20486;-55
2023/04/21 07:34:55;;;;;;;11.27;9.60;;;9.00;99.90;;;;;;5041214;28;20779;-53
2023/04/21 07:37:22;;;;;;;10.33;9.10;;;9.10;99.90;;;;;;5041986;28;20524;-54
2023/04/21 07:39:49;;;;;;;11.17;9.97;;;9.10;99.90;;;;;;5036417;28;20484;-52
2023/04/21 07:42:17;;;;;;;12.53;10.17;;;9.10;99.90;;;;;;5039877;28;20506;-53
2023/04/21 07:44:44;;;;;;;10.67;9.57;;;9.10;99.90;;;;;;5040177;28;20438;-53
2023/04/21 07:47:11;;;;;;;10.20;8.60;;;9.10;99.90;;;;;;5041648;28;20452;-55
2023/04/21 07:49:38;;;;;;;14.20;10.87;;;9.20;99.90;;;;;;5045345;28;20953;-54
2023/04/21 07:52:05;;;;;;;13.17;11.60;;;9.20;99.90;;;;;;5050716;28;20504;-51
2023/04/21 07:54:32;;;;;;;10.73;9.63;;;9.40;99.90;;;;;;5051021;28;20795;-51
2023/04/21 07:57:00;;;;;;;11.70;10.50;;;9.40;99.90;;;;;;5050376;28;20540;-51
2023/04/21 07:59:28;;;;;;;13.17;9.23;;;9.30;99.90;;;;;;5050927;28;20442;-51
2023/04/21 08:01:55;;;;;;;10.80;9.73;;;9.30;99.90;;;;;;5050676;28;20564;-51
2023/04/21 08:04:22;;;;;;;10.07;9.03;;;9.40;99.90;;;;;;5051048;28;20451;-52
2023/04/21 08:06:49;;;;;;;11.80;9.67;;;9.40;99.90;;;;;;5050673;28;20541;-51
2023/04/21 08:09:16;;;;;;;10.20;9.20;;;9.40;99.90;;;;;;5049574;28;20854;-53
2023/04/21 08:11:43;;;;;;;10.93;8.63;;;9.50;99.90;;;;;;5039721;28;20483;-54
2023/04/21 08:14:10;;;;;;;10.90;8.70;;;9.60;99.90;;;;;;5035166;28;20949;-51
2023/04/21 08:16:40;;;;;;;18.03;11.70;;;9.60;99.90;;;;;;5029581;28;20462;-52
2023/04/21 08:19:08;;;;;;;10.67;9.57;;;9.60;99.90;;;;;;5029891;28;20483;-49
2023/04/21 08:21:35;;;;;;;15.60;11.40;;;9.60;99.90;;;;;;5030101;28;20586;-52
2023/04/21 08:24:02;;;;;;;15.97;12.47;;;9.70;99.90;;;;;;5030108;28;21022;-50
2023/04/21 08:26:30;;;;;;;10.80;9.03;;;9.80;99.90;;;;;;5030259;28;20529;-51
2023/04/21 08:28:58;;;;;;;9.17;8.27;;;10.10;99.90;;;;;;5030912;28;20444;-50
2023/04/21 08:31:25;;;;;;;11.13;9.97;;;10.00;99.90;;;;;;5030511;28;20735;-52
2023/04/21 08:33:54;;;;;;;10.07;9.03;;;10.10;99.90;;;;;;5029763;28;20496;-51
2023/04/21 08:36:21;;;;;;;10.33;9.23;;;10.10;99.90;;;;;;5020493;28;20546;-52
2023/04/21 08:38:48;;;;;;;9.70;8.70;;;10.10;99.90;;;;;;5015560;28;20539;-54
2023/04/21 08:41:15;;;;;;;10.97;9.97;;;10.10;99.90;;;;;;5021709;28;20478;-53
2023/04/21 08:43:42;;;;;;;10.20;9.20;;;9.90;99.90;;;;;;5022635;28;20462;-53
2023/04/21 08:46:09;;;;;;;9.30;8.40;;;10.00;99.90;;;;;;5017196;28;20538;-52
2023/04/21 08:48:37;;;;;;;9.10;7.70;;;10.00;99.90;;;;;;5022572;28;21191;-54
2023/04/21 08:51:08;;;;;;;8.43;7.63;;;9.90;99.90;;;;;;5027937;28;20946;-52
2023/04/21 08:53:35;;;;;;;8.53;7.57;;;9.90;99.90;;;;;;5026386;28;20466;-52
2023/04/21 08:56:03;;;;;;;8.00;7.30;;;10.00;99.90;;;;;;5029187;28;20775;-52
2023/04/21 08:58:31;;;;;;;8.67;7.80;;;10.00;99.90;;;;;;5030783;28;20450;-52
2023/04/21 09:00:58;;;;;;;9.17;8.27;;;10.10;99.90;;;;;;5031032;28;20497;-51
2023/04/21 09:03:27;;;;;;;8.77;7.87;;;10.20;99.90;;;;;;5030807;28;21052;-50
2023/04/21 09:06:01;;;;;;;8.67;7.90;;;10.20;99.90;;;;;;5030951;28;20497;-51
2023/04/21 09:08:29;;;;;;;11.70;9.70;;;10.30;99.90;;;;;;5030155;28;20818;-49
2023/04/21 09:10:57;;;;;;;9.23;7.40;;;10.30;99.90;;;;;;5030597;28;20484;-52
2023/04/21 09:13:31;;;;;;;9.10;8.20;;;10.40;99.90;;;;;;5029889;28;20489;-53
2023/04/21 09:15:58;;;;;;;7.90;7.00;;;10.50;99.90;;;;;;5030526;28;20857;-53
2023/04/21 09:18:27;;;;;;;8.97;8.07;;;10.50;99.90;;;;;;5030069;28;20443;-52
2023/04/21 09:21:06;;;;;;;8.90;8.00;;;10.50;99.90;;;;;;5030276;28;20526;-54
2023/04/21 09:23:41;;;;;;;7.50;6.83;;;11.20;99.90;;;;;;5028135;28;20538;-50
2023/04/21 09:26:09;;;;;;;9.87;8.20;;;11.50;99.90;;;;;;5027996;28;20564;-50
2023/04/21 09:28:36;;;;;;;9.53;8.50;;;11.60;99.90;;;;;;5030407;28;20534;-51
2023/04/21 09:31:03;;;;;;;8.10;7.00;;;11.70;99.90;;;;;;5030226;28;21007;-51
2023/04/21 09:33:33;;;;;;;8.00;7.20;;;11.70;99.90;;;;;;5030158;28;20548;-50
2023/04/21 09:36:02;;;;;;;8.20;7.40;;;11.50;99.90;;;;;;5029983;28;20460;-51
2023/04/21 09:38:29;;;;;;;5.27;4.77;;;11.40;99.90;;;;;;5029598;28;20452;-50
2023/04/21 09:41:01;;;;;;;4.50;3.73;;;11.50;99.90;;;;;;5030014;28;20532;-51
2023/04/21 09:43:27;;;;;;;5.90;4.90;;;11.40;99.90;;;;;;5027100;28;20509;-50
2023/04/21 09:45:56;;;;;;;5.10;4.70;;;11.50;99.90;;;;;;5030616;28;20446;-52
2023/04/21 09:48:28;;;;;;;7.93;5.97;;;11.50;99.90;;;;;;5030153;28;20545;-50
2023/04/21 09:50:56;;;;;;;6.00;5.40;;;12.00;99.90;;;;;;5030768;28;20571;-50
2023/04/21 09:53:25;;;;;;;6.10;5.50;;;11.80;99.90;;;;;;5028494;28;20497;-50
2023/04/21 09:55:55;;;;;;;7.00;5.50;;;11.80;99.90;;;;;;5029677;28;20474;-50
2023/04/21 09:58:27;;;;;;;5.50;4.70;;;11.70;99.90;;;;;;5029614;28;20516;-50
2023/04/21 10:00:57;;;;;;;5.13;4.70;;;11.70;99.90;;;;;;5029645;28;20449;-52
2023/04/21 10:03:27;;;;;;;5.43;4.83;;;11.80;99.90;;;;;;5028993;28;21051;-50
2023/04/21 10:05:55;;;;;;;4.93;4.13;;;12.00;99.90;;;;;;5029361;28;20453;-51
2023/04/21 10:08:22;;;;;;;4.50;4.10;;;12.10;99.90;;;;;;5029344;28;20477;-51
2023/04/21 10:10:51;;;;;;;4.20;3.83;;;12.20;99.90;;;;;;5029764;28;20470;-52
2023/04/21 10:13:18;;;;;;;3.80;3.50;;;12.30;99.90;;;;;;5028969;28;20545;-52
2023/04/21 10:15:47;;;;;;;4.47;3.93;;;12.70;99.90;;;;;;5029047;28;20442;-51
2023/04/21 10:18:16;;;;;;;3.40;3.10;;;12.70;99.90;;;;;;5028661;28;20987;-51
2023/04/21 10:20:52;;;;;;;4.23;2.90;;;12.80;99.90;;;;;;5029349;28;20446;-52
2023/04/21 10:23:29;;;;;;;4.83;3.50;;;12.80;99.90;;;;;;5029037;28;21087;-51
2023/04/21 10:26:02;;;;;;;4.70;3.40;;;12.90;99.90;;;;;;5029434;28;20541;-50
2023/04/21 10:28:58;;;;;;;3.60;3.30;;;12.90;99.90;;;;;;5027433;28;20449;-52
2023/04/21 10:31:30;;;;;;;3.93;2.87;;;13.30;99.90;;;;;;4978646;28;20780;-51
2023/04/21 10:34:20;;;;;;;3.07;2.83;;;13.40;99.90;;;;;;5025052;28;20550;-52
2023/04/21 10:37:07;;;;;;;3.57;2.80;;;13.60;99.90;;;;;;5026806;28;20446;-52
2023/04/21 10:39:35;;;;;;;3.37;2.80;;;13.90;99.90;;;;;;5025393;28;20543;-54
2023/04/21 10:42:24;;;;;;;3.40;2.73;;;13.90;99.90;;;;;;5025421;28;20490;-50
2023/04/21 10:44:53;;;;;;;3.63;2.17;;;14.00;99.90;;;;;;5018833;28;21032;-49
2023/04/21 10:47:29;;;;;;;2.40;2.10;;;14.20;99.90;;;;;;5024135;28;20529;-51
2023/04/21 10:49:57;;;;;;;2.27;1.60;;;14.20;99.90;;;;;;5009384;28;20442;-51
2023/04/21 10:52:32;;;;;;;2.40;1.60;;;14.40;99.90;;;;;;5025540;28;20470;-53
2023/04/21 10:55:09;;;;;;;3.70;1.97;;;14.70;99.90;;;;;;5027803;28;20448;-51
2023/04/21 10:57:36;;;;;;;1.80;1.50;;;15.00;99.90;;;;;;5024502;28;20643;-51
2023/04/21 11:00:06;;;;;;;1.80;1.50;;;14.90;99.90;;;;;;5015936;28;20434;-51
2023/04/21 11:02:35;;;;;;;2.77;2.03;;;14.90;99.90;;;;;;5028205;28;20481;-51
2023/04/21 11:05:02;;;;;;;2.50;1.57;;;14.50;99.90;;;;;;5027619;28;20447;-52
2023/04/21 11:07:29;;;;;;;3.23;1.60;;;14.60;99.90;;;;;;5026726;28;20529;-51
2023/04/21 11:09:58;;;;;;;2.17;1.03;;;14.60;99.90;;;;;;5027246;28;20932;-51
2023/04/21 11:12:28;;;;;;;1.10;0.80;;;15.00;99.90;;;;;;5028360;28;20545;-51
2023/04/21 11:14:55;;;;;;;6.90;1.00;;;15.40;99.90;;;;;;5025766;28;20868;-51
2023/04/21 11:17:23;;;;;;;2.80;0.70;;;16.00;99.90;;;;;;5016858;28;20478;-50
2023/04/21 11:19:53;;;;;;;1.40;1.17;;;16.00;99.90;;;;;;5020927;28;20448;-50
2023/04/21 11:22:22;;;;;;;1.10;0.60;;;16.10;99.90;;;;;;5016447;28;20489;-50
2023/04/21 11:24:51;;;;;;;1.00;0.50;;;15.80;99.90;;;;;;5026782;28;20577;-51
2023/04/21 11:27:18;;;;;;;1.30;0.60;;;15.70;99.90;;;;;;5026746;28;20487;-52
2023/04/21 11:29:46;;;;;;;1.13;0.80;;;15.60;99.90;;;;;;5026929;28;20870;-51
2023/04/21 11:32:13;;;;;;;1.23;0.60;;;15.50;99.90;;;;;;5026739;28;20969;-52
2023/04/21 11:34:40;;;;;;;1.00;0.50;;;15.80;99.90;;;;;;5026686;28;20538;-52
2023/04/21 11:37:10;;;;;;;1.07;0.60;;;15.80;99.90;;;;;;5026442;28;20538;-52
2023/04/21 11:39:40;;;;;;;1.00;0.60;;;15.80;99.90;;;;;;5027927;28;20450;-52
2023/04/21 11:42:07;;;;;;;1.13;0.53;;;15.80;99.90;;;;;;5026067;28;20850;-53
2023/04/21 11:44:35;;;;;;;1.30;0.60;;;16.20;99.90;;;;;;5027086;28;20935;-53
2023/04/21 11:47:13;;;;;;;0.93;0.50;;;16.10;99.90;;;;;;5027374;28;20486;-52
2023/04/21 11:49:45;;;;;;;1.10;0.60;;;16.10;99.90;;;;;;5024548;28;20454;-53
2023/04/21 11:52:23;;;;;;;1.20;0.70;;;16.30;99.90;;;;;;5025282;28;20465;-52
2023/04/21 11:54:56;;;;;;;1.57;0.83;;;16.30;99.90;;;;;;5026324;28;20482;-51
2023/04/21 11:57:24;;;;;;;1.27;0.80;;;16.20;99.90;;;;;;5027681;28;20940;-52
2023/04/21 11:59:51;;;;;;;1.00;0.60;;;16.10;99.90;;;;;;5027432;28;20434;-53
2023/04/21 12:02:25;;;;;;;6.93;5.50;;;15.90;99.90;;;;;;5027331;28;21008;-52
2023/04/21 12:05:00;;;;;;;4.50;3.67;;;15.90;99.90;;;;;;5028093;28;20445;-53
2023/04/21 12:07:31;;;;;;;1.40;0.97;;;15.70;99.90;;;;;;5027030;28;20438;-55
2023/04/21 12:09:59;;;;;;;1.20;0.77;;;15.70;99.90;;;;;;5027838;28;20534;-53
2023/04/21 12:12:26;;;;;;;1.20;0.73;;;15.80;99.90;;;;;;5027330;28;20884;-51
2023/04/21 12:14:53;;;;;;;1.63;1.03;;;15.70;99.90;;;;;;5028089;28;20446;-52
2023/04/21 12:17:20;;;;;;;1.20;0.80;;;16.10;99.90;;;;;;5029620;28;20473;-51
2023/04/21 12:19:48;;;;;;;1.10;0.70;;;16.20;99.90;;;;;;5031285;28;20480;-51
2023/04/21 12:22:17;;;;;;;1.10;0.70;;;16.00;99.90;;;;;;5031388;28;20458;-51
2023/04/21 12:24:46;;;;;;;1.10;0.80;;;15.90;99.90;;;;;;5031727;28;20539;-50
2023/04/21 12:27:13;;;;;;;1.30;0.63;;;16.00;99.90;;;;;;5031199;28;20455;-51
2023/04/21 12:29:40;;;;;;;1.30;1.00;;;16.00;99.90;;;;;;5031412;28;20788;-52
2023/04/21 12:32:08;;;;;;;1.10;0.60;;;15.90;99.90;;;;;;5031418;28;20505;-50
2023/04/21 12:34:35;;;;;;;1.05;0.40;;;15.80;99.90;;;;;;5030973;28;20504;-52
2023/04/21 12:37:02;;;;;;;1.20;0.70;;;15.80;99.90;;;;;;5025334;28;20211;-54
2023/04/21 12:39:30;;;;;;;1.00;0.60;;;15.80;99.90;;;;;;5031243;28;20929;-53
2023/04/21 12:41:58;;;;;;;1.20;0.60;;;15.80;99.90;;;;;;5030769;28;20802;-53
2023/04/21 12:44:25;;;;;;;1.30;0.50;;;15.90;99.90;;;;;;5030718;28;20558;-54